Terminal Aerodrome Forecast
Issued by NWS

Home | Current Version | Previous Version | Text Only | Print | Product List | Glossary On
Versions: 1 2 3 4 5 6 7 8 9 10 11 12 13 14 15 16 17 18 19 20 21 22 23 24 25 26 27 28 29 30 31 32 33 34 35 36
000
FTUS43 KGLD 270531
TAFMCK
TAF
KMCK 270531Z 2706/2806 12004KT P6SM FEW250
     FM271400 15010KT P6SM BKN200
     FM272200 14014G22KT P6SM VCTS BKN050CB
      TEMPO 2723/2802 3SM +TSRA SCT025 OVC050CB
     FM280200 12007KT P6SM -SHRA VCTS BKN050CB
     FM280500 11006KT P6SM BKN045=

USA.gov is the U.S. government's official web portal to all federal, state and local government web resources and services.